View Park, California
Current Conditions -  °F | °C
As of 6:47 PM on Thursday 27 Nov 2014 (Local Time) from KCQT Reporting Station
Clear Clear  
Wind Chill: 66°   Ceiling: Unl
Heat Index: 66°   Visibility: 10mi
Dew Point: 43°   Wind: 0mph
Humidity: 43%   Direction: NA
Pressure: 30"   Gusts: NA
Location:  33.9885°N, 118.334°W
Report Text: KCQT 280247Z AUTO 00000KT 10SM CLR 19/06 A3000 RMK AO2 SLP159 T01890061 53006
Loading
Personal Weather Stations






























Interactive Weather Map New forecast layout! Learn more

10-Day Weather Forecast

Advertisements
Track Severe Weather on mobile